createdAt,value
2018-11-04T00:00:09.185Z,4.7
2018-11-04T00:00:28.691Z,4.8
2018-11-04T00:00:48.223Z,4.9
2018-11-04T00:01:07.806Z,4.7
2018-11-04T00:01:27.488Z,4.8
2018-11-04T00:01:47.041Z,4.8
2018-11-04T00:02:07.459Z,4.8
2018-11-04T00:02:27.061Z,4.7
2018-11-04T00:02:46.600Z,4.5
2018-11-04T00:03:06.115Z,4.9
2018-11-04T00:03:25.754Z,4.9
2018-11-04T00:03:45.339Z,4.6
2018-11-04T00:04:04.994Z,4.4
2018-11-04T00:04:24.579Z,4.4
2018-11-04T00:04:44.122Z,4.4
2018-11-04T00:05:03.661Z,4.8
2018-11-04T00:05:23.241Z,4.7
2018-11-04T00:05:43.771Z,4.6
2018-11-04T00:06:03.316Z,4.4
2018-11-04T00:06:22.835Z,4.2
2018-11-04T00:06:42.552Z,4.1
2018-11-04T00:07:02.351Z,4.6
2018-11-04T00:07:21.852Z,4.3
2018-11-04T00:07:41.486Z,4.4
2018-11-04T00:08:02.424Z,4.1
2018-11-04T00:08:21.964Z,4.1
2018-11-04T00:08:41.515Z,4.5
2018-11-04T00:09:01.508Z,4.3
2018-11-04T00:09:21.096Z,4
2018-11-04T00:09:40.668Z,4.2
2018-11-04T00:10:00.217Z,4.3
2018-11-04T00:10:19.720Z,4.1
2018-11-04T00:10:39.334Z,3.9
2018-11-04T00:10:58.897Z,3.7
2018-11-04T00:11:18.494Z,4.1
2018-11-04T00:11:38.011Z,4.4
2018-11-04T00:11:57.796Z,4.3
2018-11-04T00:12:17.510Z,3.8
2018-11-04T00:12:37.032Z,4.2
2018-11-04T00:12:56.584Z,4.4
2018-11-04T00:13:16.110Z,4.3
2018-11-04T00:13:35.612Z,4.3
2018-11-04T00:13:55.106Z,4.4
2018-11-04T00:14:14.769Z,4.2
2018-11-04T00:14:34.273Z,3.9
2018-11-04T00:14:53.869Z,4.1
2018-11-04T00:15:13.355Z,4.2
2018-11-04T00:15:35.149Z,3.8
2018-11-04T00:15:55.189Z,4
2018-11-04T00:16:14.822Z,4.2
2018-11-04T00:16:34.326Z,3.8
2018-11-04T00:16:53.889Z,3.8
2018-11-04T00:17:13.412Z,3.6
2018-11-04T00:17:33.023Z,3.9
2018-11-04T00:17:52.734Z,4
2018-11-04T00:18:12.249Z,4
2018-11-04T00:18:31.751Z,3.8
2018-11-04T00:18:51.327Z,3.9
2018-11-04T00:19:10.913Z,3.8
2018-11-04T00:19:30.447Z,3.9
2018-11-04T00:19:49.945Z,3.9
2018-11-04T00:20:09.508Z,3.7
2018-11-04T00:20:29.026Z,3.6
2018-11-04T00:20:48.660Z,3.8
2018-11-04T00:21:08.328Z,4
2018-11-04T00:21:27.834Z,4
2018-11-04T00:21:47.367Z,4.1
2018-11-04T00:22:06.883Z,3.8
2018-11-04T00:22:26.453Z,3.8
2018-11-04T00:22:46.062Z,3.8
2018-11-04T00:23:05.657Z,4
2018-11-04T00:23:26.211Z,3.6
2018-11-04T00:23:45.795Z,3.6
2018-11-04T00:24:05.401Z,4.1
2018-11-04T00:24:24.905Z,4.1
2018-11-04T00:24:45.412Z,4
2018-11-04T00:25:04.933Z,3.8
2018-11-04T00:25:24.479Z,4.2
2018-11-04T00:25:44.053Z,4
2018-11-04T00:26:03.831Z,4.1
2018-11-04T00:26:23.429Z,3.9
2018-11-04T00:26:43.025Z,3.7
2018-11-04T00:27:02.549Z,3.9
2018-11-04T00:27:22.077Z,4.3
2018-11-04T00:27:41.567Z,4
2018-11-04T00:28:01.104Z,4
2018-11-04T00:28:20.683Z,4.1
2018-11-04T00:28:40.202Z,4.2
2018-11-04T00:28:59.730Z,4
2018-11-04T00:29:19.393Z,4.1
2018-11-04T00:29:39.077Z,4
2018-11-04T00:29:58.617Z,3.9
2018-11-04T00:30:18.090Z,4
2018-11-04T00:30:37.747Z,4
2018-11-04T00:30:57.501Z,4.3
2018-11-04T00:31:17.297Z,4.1
2018-11-04T00:31:36.884Z,4
2018-11-04T00:31:56.461Z,4.2
2018-11-04T00:32:16.133Z,4
2018-11-04T00:32:35.698Z,4
2018-11-04T00:32:55.298Z,3.9
2018-11-04T00:33:14.954Z,3.9
2018-11-04T00:33:34.530Z,4.1
2018-11-04T00:33:54.101Z,4
2018-11-04T00:34:13.859Z,3.7
2018-11-04T00:34:33.616Z,3.8
2018-11-04T00:34:53.069Z,3.8
2018-11-04T00:35:12.578Z,3.4
2018-11-04T00:35:32.100Z,3.9
2018-11-04T00:35:51.626Z,3.8
2018-11-04T00:36:11.170Z,4
2018-11-04T00:36:30.753Z,4.2
2018-11-04T00:36:50.298Z,3.7
2018-11-04T00:37:09.848Z,3.4
2018-11-04T00:37:29.364Z,3.7
2018-11-04T00:37:50.674Z,3.7
2018-11-04T00:38:10.180Z,3.6
2018-11-04T00:38:29.704Z,3.7
2018-11-04T00:38:49.227Z,3.7
2018-11-04T00:39:08.825Z,3.8
2018-11-04T00:39:28.407Z,3.7
2018-11-04T00:39:47.943Z,3.8
2018-11-04T00:40:07.451Z,3.7
2018-11-04T00:40:27.060Z,3.9
2018-11-04T00:40:46.709Z,3.8
2018-11-04T00:41:06.332Z,3.9
2018-11-04T00:41:25.816Z,3.7
2018-11-04T00:41:45.346Z,3.6
2018-11-04T00:42:04.979Z,3.8
2018-11-04T00:42:24.522Z,3.5
2018-11-04T00:42:44.215Z,3.8
2018-11-04T00:43:03.744Z,4.1
2018-11-04T00:43:23.265Z,3.8
2018-11-04T00:43:42.932Z,3.7
2018-11-04T00:44:02.451Z,3.7
2018-11-04T00:44:22.956Z,3.8
2018-11-04T00:44:42.563Z,4
2018-11-04T00:45:02.099Z,4
2018-11-04T00:45:21.872Z,3.9
2018-11-04T00:45:41.377Z,3.6
2018-11-04T00:46:00.946Z,3.9
2018-11-04T00:46:20.630Z,4
2018-11-04T00:46:40.166Z,3.8
2018-11-04T00:46:59.861Z,3.6
2018-11-04T00:47:19.998Z,3.5
2018-11-04T00:47:39.694Z,3.5
2018-11-04T00:47:59.895Z,4
2018-11-04T00:48:19.659Z,3.8
2018-11-04T00:48:39.220Z,3.8
2018-11-04T00:48:59.579Z,3.7
2018-11-04T00:49:19.128Z,3.7
2018-11-04T00:49:39.051Z,4
2018-11-04T00:49:58.652Z,3.8
2018-11-04T00:50:18.212Z,3.9
2018-11-04T00:50:38.082Z,3.8
2018-11-04T00:50:57.604Z,3.9
2018-11-04T00:51:17.124Z,3.6
2018-11-04T00:51:36.690Z,3.5
2018-11-04T00:51:56.209Z,3.4
2018-11-04T00:52:15.717Z,3.5
2018-11-04T00:52:35.277Z,3.6
2018-11-04T00:52:54.839Z,3.6
2018-11-04T00:53:14.506Z,3.7
2018-11-04T00:53:34.087Z,3.6
2018-11-04T00:53:53.610Z,3.6
2018-11-04T00:54:13.124Z,3.5
2018-11-04T00:54:33.412Z,3.5
2018-11-04T00:54:53.070Z,3.7
2018-11-04T00:55:12.609Z,4
2018-11-04T00:55:32.142Z,3.7
2018-11-04T00:55:51.654Z,3.3
2018-11-04T00:56:11.170Z,3.6
2018-11-04T00:56:30.689Z,3.7
2018-11-04T00:56:50.257Z,3.3
2018-11-04T00:57:09.758Z,3.3
2018-11-04T00:57:29.339Z,3.3
2018-11-04T00:57:48.947Z,3.4
2018-11-04T00:58:09.909Z,3.4
2018-11-04T00:58:30.132Z,3.2
2018-11-04T00:58:49.724Z,3.1
2018-11-04T00:59:09.260Z,3.3
2018-11-04T00:59:29.769Z,3.5
2018-11-04T00:59:49.444Z,3.5
2018-11-04T01:00:08.977Z,3.5
2018-11-04T01:00:28.565Z,3.4
2018-11-04T01:00:48.061Z,3.8
2018-11-04T01:01:07.588Z,3.7
2018-11-04T01:01:27.128Z,3.4
2018-11-04T01:01:46.650Z,3.6
2018-11-04T01:02:06.176Z,3.5
2018-11-04T01:02:25.682Z,3.3
2018-11-04T01:02:45.183Z,3.6
2018-11-04T01:03:04.703Z,3.7
2018-11-04T01:03:24.202Z,3.6
2018-11-04T01:03:43.728Z,3.5
2018-11-04T01:04:03.258Z,3.3
2018-11-04T01:04:22.756Z,3.5
2018-11-04T01:04:42.286Z,3.3
2018-11-04T01:05:01.881Z,3.4
2018-11-04T01:05:21.427Z,3.4
2018-11-04T01:05:40.951Z,3.3
2018-11-04T01:06:00.473Z,3.2
2018-11-04T01:06:19.997Z,3.4
2018-11-04T01:06:40.528Z,3.5
2018-11-04T01:07:00.039Z,3.4
2018-11-04T01:07:19.541Z,3.6
2018-11-04T01:07:39.062Z,3.6
2018-11-04T01:07:58.602Z,3.4
2018-11-04T01:08:18.099Z,3.5
2018-11-04T01:08:37.608Z,3.7
2018-11-04T01:08:57.382Z,3.8
2018-11-04T01:09:17.109Z,3.7
2018-11-04T01:09:36.438Z,3.6
2018-11-04T01:09:55.982Z,3.7
2018-11-04T01:10:15.634Z,3.4
2018-11-04T01:10:35.138Z,3.5
2018-11-04T01:10:54.659Z,3.8
2018-11-04T01:11:14.171Z,3.6
2018-11-04T01:11:33.682Z,3.6
2018-11-04T01:11:53.271Z,3.9
2018-11-04T01:12:12.736Z,3.6
2018-11-04T01:12:33.220Z,3.4
2018-11-04T01:12:52.760Z,3.6
2018-11-04T01:13:12.296Z,3.8
2018-11-04T01:13:31.845Z,3.8
2018-11-04T01:13:51.354Z,3.5
2018-11-04T01:14:10.887Z,3.4
2018-11-04T01:14:30.409Z,3.2
2018-11-04T01:14:49.938Z,3.5
2018-11-04T01:15:09.715Z,3.3
2018-11-04T01:15:30.230Z,3.1
2018-11-04T01:15:49.783Z,3
2018-11-04T01:16:09.268Z,3.2
2018-11-04T01:16:28.781Z,3.2
2018-11-04T01:16:48.327Z,3.1
2018-11-04T01:17:07.815Z,3.4
2018-11-04T01:17:27.353Z,3.1
2018-11-04T01:17:46.886Z,3
2018-11-04T01:18:06.437Z,3
2018-11-04T01:18:25.980Z,2.9
2018-11-04T01:18:46.482Z,3
2018-11-04T01:19:05.974Z,3.2
2018-11-04T01:19:25.488Z,3
2018-11-04T01:19:45.009Z,3
2018-11-04T01:20:04.731Z,3.1
2018-11-04T01:20:24.251Z,3
2018-11-04T01:20:43.796Z,2.9
2018-11-04T01:21:04.347Z,3
2018-11-04T01:21:23.852Z,2.8
2018-11-04T01:21:43.363Z,2.8
2018-11-04T01:22:02.932Z,2.9
2018-11-04T01:22:22.445Z,3
2018-11-04T01:22:41.994Z,3
2018-11-04T01:23:01.499Z,2.8
2018-11-04T01:23:21.017Z,3
2018-11-04T01:23:40.521Z,3
2018-11-04T01:24:00.046Z,3
2018-11-04T01:24:19.659Z,2.9
2018-11-04T01:24:39.072Z,3
2018-11-04T01:24:58.622Z,2.8
2018-11-04T01:25:18.201Z,2.7
2018-11-04T01:25:37.706Z,2.8
2018-11-04T01:25:58.219Z,2.8
2018-11-04T01:26:17.738Z,2.8
2018-11-04T01:26:37.271Z,2.8
2018-11-04T01:26:56.800Z,2.8
2018-11-04T01:27:16.321Z,2.7
2018-11-04T01:27:35.850Z,2.8
2018-11-04T01:27:55.383Z,2.8
2018-11-04T01:28:14.925Z,2.6
2018-11-04T01:28:34.463Z,2.8
2018-11-04T01:28:53.968Z,2.9
2018-11-04T01:29:13.571Z,3.3
2018-11-04T01:29:33.044Z,3
2018-11-04T01:29:52.548Z,2.9
2018-11-04T01:30:12.072Z,3.1
2018-11-04T01:30:31.651Z,2.9
2018-11-04T01:30:51.171Z,3.2
2018-11-04T01:31:10.676Z,2.9
2018-11-04T01:31:30.185Z,3.1
2018-11-04T01:31:50.708Z,3.2
2018-11-04T01:32:11.228Z,3.1
2018-11-04T01:32:30.775Z,3
2018-11-04T01:32:50.275Z,3.2
2018-11-04T01:33:09.791Z,3
2018-11-04T01:33:29.321Z,3.1
2018-11-04T01:33:48.838Z,3.2
2018-11-04T01:34:08.374Z,3.2
2018-11-04T01:34:27.886Z,3.2
2018-11-04T01:34:48.375Z,3.3
2018-11-04T01:35:07.883Z,3.1
2018-11-04T01:35:27.500Z,3.1
2018-11-04T01:35:46.995Z,3
2018-11-04T01:36:06.527Z,2.8
2018-11-04T01:36:26.047Z,2.9
2018-11-04T01:36:45.568Z,2.9
2018-11-04T01:37:05.091Z,2.9
2018-11-04T01:37:24.584Z,3.3
2018-11-04T01:37:44.178Z,3.2
2018-11-04T01:38:03.609Z,2.9
2018-11-04T01:38:23.133Z,3.1
2018-11-04T01:38:43.677Z,2.9
2018-11-04T01:39:03.207Z,2.7
2018-11-04T01:39:23.728Z,2.8
2018-11-04T01:39:43.253Z,3.2
2018-11-04T01:40:02.781Z,2.9
2018-11-04T01:40:22.350Z,2.9
2018-11-04T01:40:41.899Z,2.8
2018-11-04T01:41:01.401Z,2.8
2018-11-04T01:41:20.938Z,2.8
2018-11-04T01:41:40.496Z,2.9
2018-11-04T01:42:01.017Z,3
2018-11-04T01:42:20.509Z,3.1
2018-11-04T01:42:40.034Z,2.7
2018-11-04T01:42:59.556Z,2.9
2018-11-04T01:43:19.091Z,2.7
2018-11-04T01:43:38.591Z,2.8
2018-11-04T01:43:58.137Z,2.8
2018-11-04T01:44:17.659Z,2.8
2018-11-04T01:44:37.182Z,2.8
2018-11-04T01:44:57.718Z,2.8
2018-11-04T01:45:17.228Z,2.9
2018-11-04T01:45:36.776Z,2.5
2018-11-04T01:45:56.288Z,2.3
2018-11-04T01:46:15.866Z,2.2
2018-11-04T01:46:35.411Z,2.4
2018-11-04T01:46:54.941Z,2.1
2018-11-04T01:47:14.454Z,2.3
2018-11-04T01:47:33.971Z,2.6
2018-11-04T01:47:53.513Z,2.7
2018-11-04T01:48:14.030Z,2.6
2018-11-04T01:48:33.546Z,2.6
2018-11-04T01:48:53.079Z,2.6
2018-11-04T01:49:13.585Z,2.7
2018-11-04T01:49:33.130Z,2.9
2018-11-04T01:49:52.625Z,2.9
2018-11-04T01:50:12.157Z,2.9
2018-11-04T01:50:31.724Z,2.8
2018-11-04T01:50:52.260Z,2.6
2018-11-04T01:51:11.801Z,2.4
2018-11-04T01:51:31.339Z,2.5
2018-11-04T01:51:50.861Z,2.5
2018-11-04T01:52:10.388Z,2.2
2018-11-04T01:52:29.920Z,2.4
2018-11-04T01:52:49.455Z,2.7
2018-11-04T01:53:08.973Z,2.7
2018-11-04T01:53:28.483Z,2.8
2018-11-04T01:53:47.985Z,2.7
2018-11-04T01:54:07.531Z,2.6
2018-11-04T01:54:27.822Z,2.7
2018-11-04T01:54:47.320Z,2.5
2018-11-04T01:55:06.821Z,2.6
2018-11-04T01:55:26.342Z,2.6
2018-11-04T01:55:45.908Z,2.9
2018-11-04T01:56:05.461Z,2.6
2018-11-04T01:56:24.994Z,2.7
2018-11-04T01:56:44.520Z,2.7
2018-11-04T01:57:04.047Z,2.6
2018-11-04T01:57:23.574Z,2.7
2018-11-04T01:57:43.099Z,2.5
2018-11-04T01:58:02.600Z,2.5
2018-11-04T01:58:23.135Z,2.6
2018-11-04T01:58:43.642Z,2.6
2018-11-04T01:59:03.151Z,2.6
2018-11-04T01:59:22.696Z,2.5
2018-11-04T01:59:42.199Z,2.7
2018-11-04T02:00:01.738Z,2.5
2018-11-04T02:00:21.252Z,2.6
2018-11-04T02:00:40.851Z,2.8
2018-11-04T02:01:00.377Z,2.5
2018-11-04T02:01:19.862Z,2.5
2018-11-04T02:01:39.357Z,2.4
2018-11-04T02:01:59.862Z,2.5
2018-11-04T02:02:19.392Z,2.7
2018-11-04T02:02:38.915Z,2.7
2018-11-04T02:02:58.444Z,2.7
2018-11-04T02:03:17.940Z,2.6
2018-11-04T02:03:37.440Z,2.7
2018-11-04T02:03:56.932Z,2.8
2018-11-04T02:04:16.439Z,2.8
2018-11-04T02:04:35.969Z,2.8
2018-11-04T02:04:55.498Z,2.8
2018-11-04T02:05:15.018Z,2.9
2018-11-04T02:05:35.527Z,2.7
2018-11-04T02:05:55.101Z,2.6
2018-11-04T02:06:14.634Z,2.9
2018-11-04T02:06:34.156Z,2.8
2018-11-04T02:06:53.673Z,2.9
2018-11-04T02:07:13.186Z,2.9
2018-11-04T02:07:32.702Z,2.8
2018-11-04T02:07:53.211Z,3.1
2018-11-04T02:08:12.730Z,2.8
2018-11-04T02:08:32.242Z,2.8
2018-11-04T02:08:51.774Z,3.1
2018-11-04T02:09:11.319Z,2.9
2018-11-04T02:09:30.821Z,2.9
2018-11-04T02:09:50.331Z,2.9
2018-11-04T02:10:09.841Z,2.9
2018-11-04T02:10:29.363Z,2.8
2018-11-04T02:10:48.863Z,2.7
2018-11-04T02:11:08.429Z,3
2018-11-04T02:11:27.943Z,2.9
2018-11-04T02:11:47.463Z,2.7
2018-11-04T02:12:06.982Z,2.9
2018-11-04T02:12:26.504Z,2.9
2018-11-04T02:12:46.035Z,2.9
2018-11-04T02:13:05.539Z,3
2018-11-04T02:13:25.062Z,2.9
2018-11-04T02:13:44.582Z,2.9
2018-11-04T02:14:04.077Z,3.2
2018-11-04T02:14:23.617Z,3.3
2018-11-04T02:14:43.126Z,2.8
2018-11-04T02:15:02.658Z,2.9
2018-11-04T02:15:22.142Z,2.9
2018-11-04T02:15:41.684Z,2.9
2018-11-04T02:16:01.242Z,3.1
2018-11-04T02:16:20.770Z,3
2018-11-04T02:16:40.301Z,2.7
2018-11-04T02:16:59.817Z,2.7
2018-11-04T02:17:19.325Z,2.6
2018-11-04T02:17:38.829Z,2.7
2018-11-04T02:17:58.360Z,3
2018-11-04T02:18:17.834Z,2.8
2018-11-04T02:18:37.337Z,2.7
2018-11-04T02:18:56.849Z,2.7
2018-11-04T02:19:16.385Z,2.9
2018-11-04T02:19:35.899Z,3
2018-11-04T02:19:56.397Z,2.8
2018-11-04T02:20:15.926Z,2.6
2018-11-04T02:20:35.439Z,2.9
2018-11-04T02:20:54.980Z,3.1
2018-11-04T02:21:14.534Z,3
2018-11-04T02:21:34.048Z,2.6
2018-11-04T02:21:53.573Z,2.9
2018-11-04T02:22:13.078Z,2.8
2018-11-04T02:22:32.582Z,2.8
2018-11-04T02:22:52.089Z,3
2018-11-04T02:23:11.630Z,2.7
2018-11-04T02:23:31.143Z,3.1
2018-11-04T02:23:50.660Z,2.8
2018-11-04T02:24:10.188Z,2.6
2018-11-04T02:24:29.704Z,2.9
2018-11-04T02:24:49.204Z,2.8
2018-11-04T02:25:08.735Z,2.6
2018-11-04T02:25:28.247Z,2.6
2018-11-04T02:25:47.762Z,2.8
2018-11-04T02:26:07.322Z,2.9
2018-11-04T02:26:26.828Z,3.1
2018-11-04T02:26:46.340Z,3.1
2018-11-04T02:27:05.868Z,3.1
2018-11-04T02:27:25.382Z,3.1
2018-11-04T02:27:44.896Z,2.8
2018-11-04T02:28:04.424Z,2.7
2018-11-04T02:28:23.943Z,2.9
2018-11-04T02:28:43.483Z,2.9
2018-11-04T02:29:03.039Z,2.7
2018-11-04T02:29:22.511Z,2.7
2018-11-04T02:29:42.038Z,2.8
2018-11-04T02:30:01.588Z,2.7
2018-11-04T02:30:21.148Z,2.6
2018-11-04T02:30:40.695Z,2.6
2018-11-04T02:31:00.212Z,2.6
2018-11-04T02:31:19.764Z,2.7
2018-11-04T02:31:39.265Z,2.5
2018-11-04T02:31:59.773Z,2.8
2018-11-04T02:32:19.279Z,2.6
2018-11-04T02:32:38.783Z,2.4
2018-11-04T02:32:58.287Z,2.4
2018-11-04T02:33:17.789Z,2.6
2018-11-04T02:33:37.306Z,2.6
2018-11-04T02:33:56.806Z,2.5
2018-11-04T02:34:16.315Z,2.4
2018-11-04T02:34:35.830Z,2.2
2018-11-04T02:34:55.358Z,2.3
2018-11-04T02:35:14.882Z,2.4
2018-11-04T02:35:34.367Z,2.3
2018-11-04T02:35:53.931Z,2.5
2018-11-04T02:36:13.492Z,2.4
2018-11-04T02:36:32.998Z,2.3
2018-11-04T02:36:52.544Z,2.3
2018-11-04T02:37:12.071Z,2.3
2018-11-04T02:37:31.575Z,2.1
2018-11-04T02:37:51.100Z,2.2
2018-11-04T02:38:10.619Z,2.4
2018-11-04T02:38:30.132Z,2.3
2018-11-04T02:38:49.652Z,2.3
2018-11-04T02:39:09.173Z,2.4
2018-11-04T02:39:28.702Z,2.6
2018-11-04T02:39:48.246Z,2.4
2018-11-04T02:40:07.750Z,2.4
2018-11-04T02:40:28.268Z,2.5
2018-11-04T02:40:47.759Z,2.4
2018-11-04T02:41:07.288Z,2.3
2018-11-04T02:41:26.824Z,2.3
2018-11-04T02:41:46.351Z,2.4
2018-11-04T02:42:05.893Z,2.2
2018-11-04T02:42:25.421Z,2.3
2018-11-04T02:42:44.964Z,2.2
2018-11-04T02:43:04.489Z,2.1
2018-11-04T02:43:24.002Z,2.4
2018-11-04T02:43:43.593Z,2.2
2018-11-04T02:44:03.112Z,2.2
2018-11-04T02:44:22.644Z,2.2
2018-11-04T02:44:42.170Z,2.1
2018-11-04T02:45:02.670Z,2.2
2018-11-04T02:45:22.190Z,2.2
2018-11-04T02:45:41.674Z,2.2
2018-11-04T02:46:01.209Z,2.6
2018-11-04T02:46:20.792Z,2.5
2018-11-04T02:46:40.354Z,2.3
2018-11-04T02:46:59.845Z,2.3
2018-11-04T02:47:19.338Z,2.3
2018-11-04T02:47:38.823Z,2.4
2018-11-04T02:47:58.348Z,2.5
2018-11-04T02:48:17.863Z,2.4
2018-11-04T02:48:37.384Z,2.2
2018-11-04T02:48:56.877Z,2.2
2018-11-04T02:49:16.425Z,2.6
2018-11-04T02:49:35.925Z,2.6
2018-11-04T02:49:55.434Z,2.6
2018-11-04T02:50:15.012Z,2.7
2018-11-04T02:50:34.510Z,2.6
2018-11-04T02:50:54.022Z,2.5
2018-11-04T02:51:13.537Z,2.8
2018-11-04T02:51:33.123Z,2.9
2018-11-04T02:51:52.640Z,2.9
2018-11-04T02:52:12.152Z,3.1
2018-11-04T02:52:33.653Z,3.2
2018-11-04T02:52:53.162Z,3
2018-11-04T02:53:12.663Z,2.9
2018-11-04T02:53:32.176Z,3.1
2018-11-04T02:53:51.711Z,3.3
2018-11-04T02:54:11.237Z,3
2018-11-04T02:54:30.766Z,3.2
2018-11-04T02:54:50.311Z,3.3
2018-11-04T02:55:09.840Z,3.3
2018-11-04T02:55:29.348Z,3.1
2018-11-04T02:55:48.876Z,3.3
2018-11-04T02:56:08.435Z,3.4
2018-11-04T02:56:27.991Z,3.2
2018-11-04T02:56:47.510Z,3.3
2018-11-04T02:57:07.032Z,3.5
2018-11-04T02:57:26.554Z,3.5
2018-11-04T02:57:46.076Z,3.3
2018-11-04T02:58:05.566Z,3.4
2018-11-04T02:58:25.087Z,6.3
2018-11-04T02:58:44.617Z,8.6
2018-11-04T02:59:05.110Z,11.2
2018-11-04T02:59:24.626Z,11.8
2018-11-04T02:59:44.133Z,8.3
2018-11-04T03:00:03.656Z,7.3
2018-11-04T03:00:23.155Z,5.9
2018-11-04T03:00:42.683Z,4.6
2018-11-04T03:01:02.222Z,3.9
2018-11-04T03:01:21.780Z,3.6
2018-11-04T03:01:41.370Z,3.9
2018-11-04T03:02:00.916Z,3.3
2018-11-04T03:02:20.388Z,3.4
2018-11-04T03:02:39.912Z,3.2
2018-11-04T03:02:59.466Z,3.1
2018-11-04T03:03:19.993Z,3.2
2018-11-04T03:03:39.499Z,3.1
2018-11-04T03:03:59.021Z,3
2018-11-04T03:04:18.562Z,3.2
2018-11-04T03:04:38.079Z,3.1
2018-11-04T03:04:58.592Z,3.1
2018-11-04T03:05:18.119Z,3.4
2018-11-04T03:05:37.624Z,3.1
2018-11-04T03:05:57.140Z,3.3
2018-11-04T03:06:17.626Z,3.5
2018-11-04T03:06:37.274Z,3.2
2018-11-04T03:06:56.772Z,3.4
2018-11-04T03:07:16.312Z,3.3
2018-11-04T03:07:35.851Z,3.4
2018-11-04T03:07:56.345Z,3.4
2018-11-04T03:08:15.845Z,3.3
2018-11-04T03:08:35.369Z,3.2
2018-11-04T03:08:54.868Z,3.4
2018-11-04T03:09:14.419Z,3.3
2018-11-04T03:09:34.931Z,3.4
2018-11-04T03:09:54.469Z,3.3
2018-11-04T03:10:13.981Z,3.6
2018-11-04T03:10:33.521Z,3.4
2018-11-04T03:10:53.011Z,3.3
2018-11-04T03:11:12.558Z,3.4
2018-11-04T03:11:32.136Z,3.2
2018-11-04T03:11:51.665Z,3.1
2018-11-04T03:12:11.180Z,3
2018-11-04T03:12:30.698Z,3
2018-11-04T03:12:50.220Z,3
2018-11-04T03:13:09.711Z,2.9
2018-11-04T03:13:30.219Z,3.1
2018-11-04T03:13:49.730Z,2.9
2018-11-04T03:14:09.252Z,2.5
2018-11-04T03:14:28.776Z,2.8
2018-11-04T03:14:48.289Z,3
2018-11-04T03:15:07.792Z,3
2018-11-04T03:15:27.287Z,3
2018-11-04T03:15:47.790Z,3.2
2018-11-04T03:16:07.303Z,3.1
2018-11-04T03:16:26.849Z,2.8
2018-11-04T03:16:47.391Z,3.1
2018-11-04T03:17:06.919Z,2.8
2018-11-04T03:17:26.434Z,2.7
2018-11-04T03:17:45.944Z,2.7
2018-11-04T03:18:05.469Z,2.9
2018-11-04T03:18:24.984Z,2.8
2018-11-04T03:18:45.476Z,2.8
2018-11-04T03:19:04.996Z,2.9
2018-11-04T03:19:24.530Z,2.5
2018-11-04T03:19:45.035Z,2.3
2018-11-04T03:20:04.536Z,2.5
2018-11-04T03:20:24.057Z,2.6
2018-11-04T03:20:43.561Z,2.2
2018-11-04T03:21:03.090Z,2
2018-11-04T03:21:22.601Z,1.9
2018-11-04T03:21:42.180Z,1.7
2018-11-04T03:22:01.675Z,1.8
2018-11-04T03:22:21.186Z,1.8
2018-11-04T03:22:40.750Z,1.9
2018-11-04T03:23:00.244Z,1.8
2018-11-04T03:23:19.738Z,1.8
2018-11-04T03:23:39.242Z,1.8
2018-11-04T03:23:58.746Z,1.8
2018-11-04T03:24:19.291Z,1.9
2018-11-04T03:24:38.825Z,2
2018-11-04T03:24:58.323Z,1.9
2018-11-04T03:25:17.855Z,1.9
2018-11-04T03:25:37.347Z,2.2
2018-11-04T03:25:57.843Z,2.5
2018-11-04T03:26:17.344Z,2.8
2018-11-04T03:26:36.825Z,3.2
2018-11-04T03:26:56.390Z,2.9
2018-11-04T03:27:15.946Z,2.7
2018-11-04T03:27:35.458Z,2.8
2018-11-04T03:27:54.973Z,2.5
2018-11-04T03:28:14.466Z,2.1
2018-11-04T03:28:33.992Z,2.2
2018-11-04T03:28:53.518Z,2.2
2018-11-04T03:29:13.057Z,2.1
2018-11-04T03:29:32.576Z,2.4
2018-11-04T03:29:52.060Z,2.3
2018-11-04T03:30:11.583Z,2.1
2018-11-04T03:30:31.093Z,1.9
2018-11-04T03:30:51.627Z,2
2018-11-04T03:31:11.140Z,2.1
2018-11-04T03:31:31.637Z,2
2018-11-04T03:31:51.242Z,1.8
2018-11-04T03:32:10.744Z,1.8
2018-11-04T03:32:30.248Z,1.8
2018-11-04T03:32:50.749Z,2
2018-11-04T03:33:10.262Z,1.9
2018-11-04T03:33:29.783Z,1.8
2018-11-04T03:33:49.280Z,1.8
2018-11-04T03:34:08.785Z,1.7
2018-11-04T03:34:28.347Z,2
2018-11-04T03:34:47.877Z,2
2018-11-04T03:35:07.395Z,1.8
2018-11-04T03:35:26.915Z,1.8
2018-11-04T03:35:46.442Z,1.9
2018-11-04T03:36:06.987Z,1.8
2018-11-04T03:36:26.535Z,2
2018-11-04T03:36:46.033Z,1.9
2018-11-04T03:37:05.610Z,2
2018-11-04T03:37:25.122Z,1.9
2018-11-04T03:37:44.654Z,1.8
2018-11-04T03:38:04.167Z,1.9
2018-11-04T03:38:23.669Z,1.9
2018-11-04T03:38:43.162Z,1.7
2018-11-04T03:39:02.664Z,1.7
2018-11-04T03:39:22.179Z,1.9
2018-11-04T03:39:41.692Z,1.8
2018-11-04T03:40:01.249Z,1.7
2018-11-04T03:40:20.747Z,1.9
2018-11-04T03:40:40.282Z,2
2018-11-04T03:40:59.823Z,2
2018-11-04T03:41:20.322Z,1.9
2018-11-04T03:41:39.846Z,1.9
2018-11-04T03:41:59.386Z,1.8
2018-11-04T03:42:18.933Z,1.9
2018-11-04T03:42:38.451Z,2.3
2018-11-04T03:42:57.957Z,2
2018-11-04T03:43:17.469Z,1.9
2018-11-04T03:43:37.961Z,2.1
2018-11-04T03:43:57.468Z,2.2
2018-11-04T03:44:17.016Z,2.1
2018-11-04T03:44:36.553Z,2.3
2018-11-04T03:44:56.101Z,2.2
2018-11-04T03:45:15.638Z,2.1
2018-11-04T03:45:35.166Z,2.2
2018-11-04T03:45:54.696Z,2.1
2018-11-04T03:46:15.190Z,2.1
2018-11-04T03:46:34.712Z,2.3
2018-11-04T03:46:54.232Z,2.2
2018-11-04T03:47:13.799Z,2
2018-11-04T03:47:33.304Z,2.1
2018-11-04T03:47:52.822Z,2.2
2018-11-04T03:48:12.361Z,1.8
2018-11-04T03:48:32.866Z,2.1
2018-11-04T03:48:53.353Z,2
2018-11-04T03:49:12.853Z,2.1
2018-11-04T03:49:32.364Z,2.2
2018-11-04T03:49:51.858Z,2.1
2018-11-04T03:50:12.397Z,2.2
2018-11-04T03:50:31.934Z,2.4
2018-11-04T03:50:51.431Z,2.2
2018-11-04T03:51:10.947Z,2.1
2018-11-04T03:51:30.467Z,2.1
2018-11-04T03:51:50.965Z,2.2
2018-11-04T03:52:10.537Z,2.2
2018-11-04T03:52:30.059Z,2
2018-11-04T03:52:49.589Z,2
2018-11-04T03:53:09.113Z,2.1
2018-11-04T03:53:28.643Z,2.3
2018-11-04T03:53:48.147Z,2.2
2018-11-04T03:54:08.669Z,2.2
2018-11-04T03:54:28.198Z,2.2
2018-11-04T03:54:47.727Z,2.2
2018-11-04T03:55:07.219Z,2.2
2018-11-04T03:55:26.745Z,2.2
2018-11-04T03:55:46.271Z,2.2
2018-11-04T03:56:05.785Z,2.3
2018-11-04T03:56:25.296Z,2.3
2018-11-04T03:56:44.817Z,2.4
2018-11-04T03:57:04.333Z,2.1
2018-11-04T03:57:23.872Z,2.2
2018-11-04T03:57:43.373Z,2.3
2018-11-04T03:58:02.906Z,2.2
2018-11-04T03:58:22.421Z,2.4
2018-11-04T03:58:41.948Z,2.3
2018-11-04T03:59:01.494Z,2.2
2018-11-04T03:59:21.004Z,2.1
2018-11-04T03:59:40.499Z,1.9
2018-11-04T04:00:00.012Z,2.1
2018-11-04T04:00:19.532Z,2.1
2018-11-04T04:00:39.073Z,2
2018-11-04T04:00:58.596Z,2.3
2018-11-04T04:01:18.096Z,2.1
2018-11-04T04:01:37.602Z,2.1
2018-11-04T04:01:57.104Z,2.3
2018-11-04T04:02:16.631Z,2
2018-11-04T04:02:36.263Z,2
2018-11-04T04:02:56.772Z,2.2
2018-11-04T04:03:16.298Z,2.1
2018-11-04T04:03:35.804Z,1.9
2018-11-04T04:03:55.301Z,1.9
2018-11-04T04:04:14.801Z,2
2018-11-04T04:04:34.322Z,1.9
2018-11-04T04:04:53.852Z,2.2
2018-11-04T04:05:13.409Z,2.2
2018-11-04T04:05:32.876Z,2.2
2018-11-04T04:05:52.399Z,2
2018-11-04T04:06:11.919Z,1.9
2018-11-04T04:06:31.489Z,2
2018-11-04T04:06:50.989Z,2.1
2018-11-04T04:07:10.502Z,2.2
2018-11-04T04:07:30.104Z,2.1
2018-11-04T04:07:49.601Z,2.1
2018-11-04T04:08:09.120Z,2
2018-11-04T04:08:28.632Z,1.9
2018-11-04T04:08:48.133Z,1.8
2018-11-04T04:09:08.631Z,2
2018-11-04T04:09:28.120Z,2.1
2018-11-04T04:09:47.627Z,2
2018-11-04T04:10:07.122Z,2
2018-11-04T04:10:26.628Z,1.9
2018-11-04T04:10:46.150Z,2.1
2018-11-04T04:11:05.667Z,2.1
2018-11-04T04:11:25.180Z,2
2018-11-04T04:11:44.707Z,2.1
2018-11-04T04:12:04.206Z,2.1
2018-11-04T04:12:23.725Z,2.1
2018-11-04T04:12:43.299Z,2.1
2018-11-04T04:13:02.816Z,2.1
2018-11-04T04:13:22.340Z,2
2018-11-04T04:13:41.854Z,1.9
2018-11-04T04:14:02.375Z,2
2018-11-04T04:14:21.887Z,2.1
2018-11-04T04:14:41.409Z,2.2
2018-11-04T04:15:00.935Z,2.3
2018-11-04T04:15:20.448Z,2.2
2018-11-04T04:15:39.960Z,2.2
2018-11-04T04:15:59.480Z,2.1
2018-11-04T04:16:18.995Z,2.3
2018-11-04T04:16:38.574Z,2.1
2018-11-04T04:16:58.086Z,2.2
2018-11-04T04:17:17.604Z,2.4
2018-11-04T04:17:37.171Z,2.6
2018-11-04T04:17:56.705Z,2.7
2018-11-04T04:18:16.247Z,2.5
2018-11-04T04:18:35.758Z,2.5
2018-11-04T04:18:55.318Z,2.3
2018-11-04T04:19:14.802Z,2.5
2018-11-04T04:19:34.326Z,2.6
2018-11-04T04:19:53.892Z,2.6
2018-11-04T04:20:13.429Z,2.7
2018-11-04T04:20:32.936Z,2.3
2018-11-04T04:20:52.451Z,2.1
2018-11-04T04:21:11.967Z,2
2018-11-04T04:21:32.466Z,1.9
2018-11-04T04:21:51.980Z,1.8
2018-11-04T04:22:11.522Z,1.9
2018-11-04T04:22:31.044Z,2.1
2018-11-04T04:22:50.606Z,1.7
2018-11-04T04:23:10.100Z,1.7
2018-11-04T04:23:29.628Z,1.8
2018-11-04T04:23:49.182Z,1.6
2018-11-04T04:24:08.703Z,1.8
2018-11-04T04:24:28.231Z,1.8
2018-11-04T04:24:47.720Z,1.9
2018-11-04T04:25:07.264Z,1.6
2018-11-04T04:25:26.768Z,1.5
2018-11-04T04:25:46.292Z,1.7
2018-11-04T04:26:05.825Z,1.7
2018-11-04T04:26:25.322Z,1.7
2018-11-04T04:26:44.824Z,1.5
2018-11-04T04:27:04.326Z,1.8
2018-11-04T04:27:23.835Z,1.7
2018-11-04T04:27:43.425Z,1.6
2018-11-04T04:28:02.936Z,1.9
2018-11-04T04:28:23.445Z,2.1
2018-11-04T04:28:42.977Z,1.9
2018-11-04T04:29:03.455Z,1.7
2018-11-04T04:29:22.977Z,1.7
2018-11-04T04:29:42.481Z,1.6
2018-11-04T04:30:02.031Z,1.7
2018-11-04T04:30:21.530Z,1.9
2018-11-04T04:30:41.044Z,1.9
2018-11-04T04:31:00.581Z,2
2018-11-04T04:31:20.041Z,1.9
2018-11-04T04:31:39.550Z,1.6
2018-11-04T04:31:59.034Z,1.8
2018-11-04T04:32:18.552Z,2.1